sensor_id;sensor_type;location;lat;lon;timestamp;P1;durP1;ratioP1;P2;durP2;ratioP2
56599;SDS011;51832;48.152;11.530;2022-08-01T00:03:58;3.50;;;3.20;;
56599;SDS011;51832;48.152;11.530;2022-08-01T00:08:58;3.03;;;2.83;;
56599;SDS011;51832;48.152;11.530;2022-08-01T00:13:59;3.50;;;3.17;;
56599;SDS011;51832;48.152;11.530;2022-08-01T00:18:59;3.13;;;2.88;;
56599;SDS011;51832;48.152;11.530;2022-08-01T00:24:00;3.10;;;2.88;;
56599;SDS011;51832;48.152;11.530;2022-08-01T00:29:00;3.38;;;3.08;;
56599;SDS011;51832;48.152;11.530;2022-08-01T00:34:01;3.80;;;3.50;;
56599;SDS011;51832;48.152;11.530;2022-08-01T00:39:01;3.25;;;3.05;;
56599;SDS011;51832;48.152;11.530;2022-08-01T00:44:03;3.03;;;2.60;;
56599;SDS011;51832;48.152;11.530;2022-08-01T00:49:04;3.63;;;3.15;;
56599;SDS011;51832;48.152;11.530;2022-08-01T00:54:05;3.20;;;2.90;;
56599;SDS011;51832;48.152;11.530;2022-08-01T00:59:05;3.25;;;3.00;;
56599;SDS011;51832;48.152;11.530;2022-08-01T01:04:06;3.15;;;2.90;;
56599;SDS011;51832;48.152;11.530;2022-08-01T01:09:25;3.30;;;3.10;;
56599;SDS011;51832;48.152;11.530;2022-08-01T01:14:41;3.30;;;3.10;;
56599;SDS011;51832;48.152;11.530;2022-08-01T01:19:52;3.10;;;2.90;;
56599;SDS011;51832;48.152;11.530;2022-08-01T01:30:17;3.40;;;3.10;;
56599;SDS011;51832;48.152;11.530;2022-08-01T01:35:23;3.53;;;3.22;;
56599;SDS011;51832;48.152;11.530;2022-08-01T01:40:25;4.35;;;3.30;;
56599;SDS011;51832;48.152;11.530;2022-08-01T01:45:28;3.67;;;3.07;;
56599;SDS011;51832;48.152;11.530;2022-08-01T01:50:29;3.30;;;3.00;;
56599;SDS011;51832;48.152;11.530;2022-08-01T01:55:30;3.78;;;3.47;;
56599;SDS011;51832;48.152;11.530;2022-08-01T02:00:32;3.65;;;3.35;;
56599;SDS011;51832;48.152;11.530;2022-08-01T02:05:35;3.42;;;3.13;;
56599;SDS011;51832;48.152;11.530;2022-08-01T02:10:37;4.18;;;3.40;;
56599;SDS011;51832;48.152;11.530;2022-08-01T02:15:39;3.38;;;3.08;;
56599;SDS011;51832;48.152;11.530;2022-08-01T02:20:40;3.20;;;2.90;;
56599;SDS011;51832;48.152;11.530;2022-08-01T02:30:44;3.85;;;3.55;;
56599;SDS011;51832;48.152;11.530;2022-08-01T02:35:50;3.10;;;2.72;;
56599;SDS011;51832;48.152;11.530;2022-08-01T02:40:54;3.08;;;2.83;;
56599;SDS011;51832;48.152;11.530;2022-08-01T02:46:00;4.15;;;3.15;;
56599;SDS011;51832;48.152;11.530;2022-08-01T02:51:02;2.80;;;2.60;;
56599;SDS011;51832;48.152;11.530;2022-08-01T02:56:07;4.68;;;3.58;;
56599;SDS011;51832;48.152;11.530;2022-08-01T03:01:08;3.40;;;3.10;;
56599;SDS011;51832;48.152;11.530;2022-08-01T03:06:10;7.05;;;3.38;;
56599;SDS011;51832;48.152;11.530;2022-08-01T03:11:12;4.40;;;2.85;;
56599;SDS011;51832;48.152;11.530;2022-08-01T03:16:13;3.00;;;2.80;;
56599;SDS011;51832;48.152;11.530;2022-08-01T03:21:16;3.20;;;3.00;;
56599;SDS011;51832;48.152;11.530;2022-08-01T03:26:18;3.40;;;3.10;;
56599;SDS011;51832;48.152;11.530;2022-08-01T03:31:19;4.32;;;3.05;;
56599;SDS011;51832;48.152;11.530;2022-08-01T03:36:21;3.40;;;3.10;;
56599;SDS011;51832;48.152;11.530;2022-08-01T03:41:28;4.95;;;2.60;;
56599;SDS011;51832;48.152;11.530;2022-08-01T03:52:15;4.78;;;2.92;;
56599;SDS011;51832;48.152;11.530;2022-08-01T03:57:16;4.10;;;3.00;;
56599;SDS011;51832;48.152;11.530;2022-08-01T04:02:18;4.07;;;3.15;;
56599;SDS011;51832;48.152;11.530;2022-08-01T04:07:23;3.53;;;3.15;;
56599;SDS011;51832;48.152;11.530;2022-08-01T04:12:26;3.08;;;2.88;;
56599;SDS011;51832;48.152;11.530;2022-08-01T04:17:27;3.28;;;2.97;;
56599;SDS011;51832;48.152;11.530;2022-08-01T04:22:27;3.67;;;3.37;;
56599;SDS011;51832;48.152;11.530;2022-08-01T04:27:32;3.40;;;3.10;;
56599;SDS011;51832;48.152;11.530;2022-08-01T04:32:40;3.30;;;3.00;;
56599;SDS011;51832;48.152;11.530;2022-08-01T04:37:45;3.92;;;3.30;;
56599;SDS011;51832;48.152;11.530;2022-08-01T04:42:48;2.97;;;2.70;;
56599;SDS011;51832;48.152;11.530;2022-08-01T04:47:49;3.17;;;2.92;;
56599;SDS011;51832;48.152;11.530;2022-08-01T04:52:51;3.05;;;2.83;;
56599;SDS011;51832;48.152;11.530;2022-08-01T04:57:52;3.30;;;3.00;;
56599;SDS011;51832;48.152;11.530;2022-08-01T05:02:53;3.20;;;2.90;;
56599;SDS011;51832;48.152;11.530;2022-08-01T05:07:53;3.70;;;2.93;;
56599;SDS011;51832;48.152;11.530;2022-08-01T05:12:55;4.63;;;2.90;;
56599;SDS011;51832;48.152;11.530;2022-08-01T05:17:56;3.92;;;3.53;;
56599;SDS011;51832;48.152;11.530;2022-08-01T05:22:56;3.42;;;3.08;;
56599;SDS011;51832;48.152;11.530;2022-08-01T05:27:57;4.55;;;2.92;;
56599;SDS011;51832;48.152;11.530;2022-08-01T05:32:57;4.78;;;2.67;;
56599;SDS011;51832;48.152;11.530;2022-08-01T05:37:58;3.90;;;3.00;;
56599;SDS011;51832;48.152;11.530;2022-08-01T05:42:58;3.58;;;3.10;;
56599;SDS011;51832;48.152;11.530;2022-08-01T05:47:59;5.27;;;2.70;;
56599;SDS011;51832;48.152;11.530;2022-08-01T05:52:59;3.10;;;2.80;;
56599;SDS011;51832;48.152;11.530;2022-08-01T05:57:59;3.13;;;2.90;;
56599;SDS011;51832;48.152;11.530;2022-08-01T06:03:00;3.80;;;2.80;;
56599;SDS011;51832;48.152;11.530;2022-08-01T06:08:00;2.90;;;2.70;;
56599;SDS011;51832;48.152;11.530;2022-08-01T06:13:01;3.23;;;2.93;;
56599;SDS011;51832;48.152;11.530;2022-08-01T06:18:02;3.67;;;2.97;;
56599;SDS011;51832;48.152;11.530;2022-08-01T06:23:04;3.42;;;3.10;;
56599;SDS011;51832;48.152;11.530;2022-08-01T06:28:05;3.55;;;3.00;;
56599;SDS011;51832;48.152;11.530;2022-08-01T06:33:05;4.70;;;3.20;;
56599;SDS011;51832;48.152;11.530;2022-08-01T06:38:05;4.37;;;3.47;;
56599;SDS011;51832;48.152;11.530;2022-08-01T06:43:06;3.80;;;3.22;;
56599;SDS011;51832;48.152;11.530;2022-08-01T06:48:06;3.53;;;3.08;;
56599;SDS011;51832;48.152;11.530;2022-08-01T06:53:07;3.65;;;2.97;;
56599;SDS011;51832;48.152;11.530;2022-08-01T06:58:08;4.88;;;3.65;;
56599;SDS011;51832;48.152;11.530;2022-08-01T07:03:08;5.17;;;3.40;;
56599;SDS011;51832;48.152;11.530;2022-08-01T07:08:08;4.35;;;3.33;;
56599;SDS011;51832;48.152;11.530;2022-08-01T07:13:09;4.07;;;3.70;;
56599;SDS011;51832;48.152;11.530;2022-08-01T07:18:09;4.70;;;3.22;;
56599;SDS011;51832;48.152;11.530;2022-08-01T07:23:10;3.40;;;3.10;;
56599;SDS011;51832;48.152;11.530;2022-08-01T07:28:10;5.40;;;3.40;;
56599;SDS011;51832;48.152;11.530;2022-08-01T07:33:11;3.50;;;3.20;;
56599;SDS011;51832;48.152;11.530;2022-08-01T07:38:11;4.32;;;3.00;;
56599;SDS011;51832;48.152;11.530;2022-08-01T07:43:12;5.15;;;3.50;;
56599;SDS011;51832;48.152;11.530;2022-08-01T07:48:13;4.93;;;3.53;;
56599;SDS011;51832;48.152;11.530;2022-08-01T07:53:14;3.70;;;3.40;;
56599;SDS011;51832;48.152;11.530;2022-08-01T07:58:14;4.07;;;3.67;;
56599;SDS011;51832;48.152;11.530;2022-08-01T08:03:16;4.33;;;3.17;;
56599;SDS011;51832;48.152;11.530;2022-08-01T08:08:17;4.33;;;3.83;;
56599;SDS011;51832;48.152;11.530;2022-08-01T08:13:18;5.03;;;4.03;;
56599;SDS011;51832;48.152;11.530;2022-08-01T08:18:18;3.53;;;3.08;;
56599;SDS011;51832;48.152;11.530;2022-08-01T08:23:19;3.33;;;3.00;;
56599;SDS011;51832;48.152;11.530;2022-08-01T08:28:38;4.43;;;3.10;;
56599;SDS011;51832;48.152;11.530;2022-08-01T08:33:38;4.65;;;3.22;;
56599;SDS011;51832;48.152;11.530;2022-08-01T08:38:39;3.40;;;3.10;;
56599;SDS011;51832;48.152;11.530;2022-08-01T08:43:39;6.35;;;3.70;;
56599;SDS011;51832;48.152;11.530;2022-08-01T08:48:41;3.85;;;3.30;;
56599;SDS011;51832;48.152;11.530;2022-08-01T08:53:42;3.97;;;3.55;;
56599;SDS011;51832;48.152;11.530;2022-08-01T08:58:44;3.60;;;2.87;;
56599;SDS011;51832;48.152;11.530;2022-08-01T09:03:45;4.10;;;3.25;;
56599;SDS011;51832;48.152;11.530;2022-08-01T09:08:46;3.28;;;2.97;;
56599;SDS011;51832;48.152;11.530;2022-08-01T09:14:06;3.30;;;3.00;;
56599;SDS011;51832;48.152;11.530;2022-08-01T09:19:22;3.17;;;2.75;;
56599;SDS011;51832;48.152;11.530;2022-08-01T09:24:24;3.55;;;2.55;;
56599;SDS011;51832;48.152;11.530;2022-08-01T09:29:30;2.83;;;2.63;;
56599;SDS011;51832;48.152;11.530;2022-08-01T09:34:34;2.88;;;2.58;;
56599;SDS011;51832;48.152;11.530;2022-08-01T09:39:38;3.38;;;2.20;;
56599;SDS011;51832;48.152;11.530;2022-08-01T09:44:43;3.75;;;2.22;;
56599;SDS011;51832;48.152;11.530;2022-08-01T09:55:20;3.67;;;2.45;;
56599;SDS011;51832;48.152;11.530;2022-08-01T10:00:16;5.40;;;2.38;;
56599;SDS011;51832;48.152;11.530;2022-08-01T10:05:29;2.60;;;2.40;;
56599;SDS011;51832;48.152;11.530;2022-08-01T10:10:33;2.75;;;2.55;;
56599;SDS011;51832;48.152;11.530;2022-08-01T10:15:34;3.83;;;2.30;;
56599;SDS011;51832;48.152;11.530;2022-08-01T10:20:34;2.92;;;2.17;;
56599;SDS011;51832;48.152;11.530;2022-08-01T10:25:36;2.37;;;2.17;;
56599;SDS011;51832;48.152;11.530;2022-08-01T10:30:41;3.83;;;2.40;;
56599;SDS011;51832;48.152;11.530;2022-08-01T10:35:42;2.97;;;1.97;;
56599;SDS011;51832;48.152;11.530;2022-08-01T10:40:46;2.13;;;1.92;;
56599;SDS011;51832;48.152;11.530;2022-08-01T10:45:46;2.03;;;1.80;;
56599;SDS011;51832;48.152;11.530;2022-08-01T10:50:48;2.38;;;2.17;;
56599;SDS011;51832;48.152;11.530;2022-08-01T10:55:52;2.17;;;2.03;;
56599;SDS011;51832;48.152;11.530;2022-08-01T11:06:21;2.42;;;2.22;;
56599;SDS011;51832;48.152;11.530;2022-08-01T11:11:25;2.83;;;2.35;;
56599;SDS011;51832;48.152;11.530;2022-08-01T11:32:31;2.40;;;2.20;;
56599;SDS011;51832;48.152;11.530;2022-08-01T11:37:32;2.63;;;2.25;;
56599;SDS011;51832;48.152;11.530;2022-08-01T11:42:32;3.95;;;2.17;;
56599;SDS011;51832;48.152;11.530;2022-08-01T11:47:42;2.58;;;2.10;;
56599;SDS011;51832;48.152;11.530;2022-08-01T11:52:49;2.30;;;1.80;;
56599;SDS011;51832;48.152;11.530;2022-08-01T11:58:01;2.20;;;2.00;;
56599;SDS011;51832;48.152;11.530;2022-08-01T12:08:04;2.17;;;1.80;;
56599;SDS011;51832;48.152;11.530;2022-08-01T12:13:05;3.73;;;1.93;;
56599;SDS011;51832;48.152;11.530;2022-08-01T12:18:06;2.08;;;1.65;;
56599;SDS011;51832;48.152;11.530;2022-08-01T12:23:08;2.22;;;1.83;;
